sensor_id;sensor_type;location;lat;lon;timestamp;pressure;altitude;pressure_sealevel;temperature;humidity
55289;BME280;41154;45.394;5.734;2023-02-26T00:01:14;95722.25;;;3.97;100.00
55289;BME280;41154;45.394;5.734;2023-02-26T00:03:40;95727.69;;;4.19;100.00
55289;BME280;41154;45.394;5.734;2023-02-26T00:06:07;95723.47;;;3.89;100.00
55289;BME280;41154;45.394;5.734;2023-02-26T00:08:33;95722.84;;;3.99;100.00
55289;BME280;41154;45.394;5.734;2023-02-26T00:10:59;95715.22;;;4.03;100.00
55289;BME280;41154;45.394;5.734;2023-02-26T00:13:28;95717.84;;;3.86;100.00
55289;BME280;41154;45.394;5.734;2023-02-26T00:15:58;95721.63;;;3.90;100.00
55289;BME280;41154;45.394;5.734;2023-02-26T00:18:28;95722.84;;;3.99;100.00
55289;BME280;41154;45.394;5.734;2023-02-26T00:20:58;95724.06;;;4.25;100.00
55289;BME280;41154;45.394;5.734;2023-02-26T00:23:24;95703.69;;;3.97;100.00
55289;BME280;41154;45.394;5.734;2023-02-26T00:26:05;95708.59;;;3.88;100.00
55289;BME280;41154;45.394;5.734;2023-02-26T00:28:35;95714.44;;;4.19;100.00
55289;BME280;41154;45.394;5.734;2023-02-26T00:31:28;95703.47;;;4.32;100.00
55289;BME280;41154;45.394;5.734;2023-02-26T00:33:55;95702.03;;;4.25;100.00
55289;BME280;41154;45.394;5.734;2023-02-26T00:40:07;95715.22;;;4.03;100.00
55289;BME280;41154;45.394;5.734;2023-02-26T00:42:07;95720.03;;;4.06;100.00
55289;BME280;41154;45.394;5.734;2023-02-26T00:44:33;95705.81;;;4.12;100.00
55289;BME280;41154;45.394;5.734;2023-02-26T00:55:25;95715.63;;;3.66;100.00
55289;BME280;41154;45.394;5.734;2023-02-26T00:57:51;95712.88;;;3.60;100.00
55289;BME280;41154;45.394;5.734;2023-02-26T01:00:18;95719.41;;;3.41;100.00
55289;BME280;41154;45.394;5.734;2023-02-26T01:02:45;95717.22;;;3.38;100.00
55289;BME280;41154;45.394;5.734;2023-02-26T01:05:11;95711.09;;;3.49;100.00
55289;BME280;41154;45.394;5.734;2023-02-26T01:10:09;95714.94;;;3.30;100.00
55289;BME280;41154;45.394;5.734;2023-02-26T01:12:35;95712.28;;;3.41;100.00
55289;BME280;41154;45.394;5.734;2023-02-26T01:15:03;95716.41;;;3.49;100.00
55289;BME280;41154;45.394;5.734;2023-02-26T01:17:44;95712.91;;;3.20;100.00
55289;BME280;41154;45.394;5.734;2023-02-26T01:20:23;95721.75;;;3.26;100.00
55289;BME280;41154;45.394;5.734;2023-02-26T01:22:51;95726.94;;;3.32;100.00
55289;BME280;41154;45.394;5.734;2023-02-26T01:25:55;95715.81;;;3.18;100.00
55289;BME280;41154;45.394;5.734;2023-02-26T01:28:14;95712.22;;;3.24;100.00
55289;BME280;41154;45.394;5.734;2023-02-26T01:30:41;95709.91;;;3.16;100.00
55289;BME280;41154;45.394;5.734;2023-02-26T01:33:39;95720.63;;;3.21;100.00
55289;BME280;41154;45.394;5.734;2023-02-26T01:41:42;95720.69;;;2.98;100.00
55289;BME280;41154;45.394;5.734;2023-02-26T01:46:54;95718.75;;;2.81;100.00
55289;BME280;41154;45.394;5.734;2023-02-26T01:49:20;95715.53;;;2.79;100.00
55289;BME280;41154;45.394;5.734;2023-02-26T01:51:50;95708.28;;;2.75;100.00
55289;BME280;41154;45.394;5.734;2023-02-26T01:54:26;95707.25;;;2.64;100.00
55289;BME280;41154;45.394;5.734;2023-02-26T01:57:14;95711.84;;;2.57;100.00
55289;BME280;41154;45.394;5.734;2023-02-26T01:59:44;95711.63;;;2.70;100.00
55289;BME280;41154;45.394;5.734;2023-02-26T02:02:15;95712.09;;;2.67;100.00
55289;BME280;41154;45.394;5.734;2023-02-26T02:04:43;95699.06;;;2.18;100.00
55289;BME280;41154;45.394;5.734;2023-02-26T02:07:09;95694.81;;;2.05;100.00
55289;BME280;41154;45.394;5.734;2023-02-26T02:09:39;95690.81;;;2.26;100.00
55289;BME280;41154;45.394;5.734;2023-02-26T02:12:37;95692.88;;;2.12;100.00
55289;BME280;41154;45.394;5.734;2023-02-26T02:15:24;95698.63;;;2.33;100.00
55289;BME280;41154;45.394;5.734;2023-02-26T02:18:13;95694.28;;;2.39;100.00
55289;BME280;41154;45.394;5.734;2023-02-26T02:23:44;95687.81;;;2.46;100.00
55289;BME280;41154;45.394;5.734;2023-02-26T02:29:32;95696.78;;;2.33;100.00
55289;BME280;41154;45.394;5.734;2023-02-26T02:32:17;95692.75;;;2.55;100.00
55289;BME280;41154;45.394;5.734;2023-02-26T02:35:37;95699.66;;;2.67;100.00
55289;BME280;41154;45.394;5.734;2023-02-26T02:37:45;95709.19;;;2.80;100.00
55289;BME280;41154;45.394;5.734;2023-02-26T02:43:18;95701.25;;;2.57;100.00
55289;BME280;41154;45.394;5.734;2023-02-26T02:46:07;95712.19;;;2.72;100.00
55289;BME280;41154;45.394;5.734;2023-02-26T02:48:42;95705.44;;;2.53;100.00
55289;BME280;41154;45.394;5.734;2023-02-26T02:51:16;95700.47;;;2.56;100.00
55289;BME280;41154;45.394;5.734;2023-02-26T02:53:56;95698.16;;;2.60;100.00
55289;BME280;41154;45.394;5.734;2023-02-26T02:56:29;95705.63;;;2.63;100.00
55289;BME280;41154;45.394;5.734;2023-02-26T03:04:50;95702.31;;;2.44;100.00
55289;BME280;41154;45.394;5.734;2023-02-26T03:07:16;95706.78;;;2.67;100.00
55289;BME280;41154;45.394;5.734;2023-02-26T03:09:42;95703.22;;;2.73;100.00
55289;BME280;41154;45.394;5.734;2023-02-26T03:12:10;95708.47;;;2.85;100.00
55289;BME280;41154;45.394;5.734;2023-02-26T03:14:37;95706.53;;;2.80;100.00
55289;BME280;41154;45.394;5.734;2023-02-26T03:23:04;95707.50;;;2.62;100.00
55289;BME280;41154;45.394;5.734;2023-02-26T03:25:47;95708.75;;;2.72;100.00
55289;BME280;41154;45.394;5.734;2023-02-26T03:28:26;95716.22;;;2.63;100.00
55289;BME280;41154;45.394;5.734;2023-02-26T03:31:01;95712.44;;;2.47;100.00
55289;BME280;41154;45.394;5.734;2023-02-26T03:33:51;95715.66;;;2.61;100.00
55289;BME280;41154;45.394;5.734;2023-02-26T03:37:05;95719.44;;;2.77;100.00
55289;BME280;41154;45.394;5.734;2023-02-26T03:39:25;95729.09;;;2.71;100.00
55289;BME280;41154;45.394;5.734;2023-02-26T03:42:04;95717.50;;;2.48;100.00
55289;BME280;41154;45.394;5.734;2023-02-26T03:44:46;95726.72;;;2.34;100.00
55289;BME280;41154;45.394;5.734;2023-02-26T03:47:15;95709.22;;;2.45;100.00
55289;BME280;41154;45.394;5.734;2023-02-26T03:49:55;95710.16;;;2.39;100.00
55289;BME280;41154;45.394;5.734;2023-02-26T03:52:26;95716.22;;;2.39;100.00
55289;BME280;41154;45.394;5.734;2023-02-26T03:58:34;95714.38;;;2.16;100.00
55289;BME280;41154;45.394;5.734;2023-02-26T04:01:34;95707.56;;;2.08;100.00
55289;BME280;41154;45.394;5.734;2023-02-26T04:04:07;95704.28;;;2.25;100.00
55289;BME280;41154;45.394;5.734;2023-02-26T04:06:36;95709.41;;;2.20;100.00
55289;BME280;41154;45.394;5.734;2023-02-26T04:09:06;95709.56;;;2.48;100.00
55289;BME280;41154;45.394;5.734;2023-02-26T04:11:35;95700.72;;;2.31;100.00
55289;BME280;41154;45.394;5.734;2023-02-26T04:14:02;95699.91;;;2.54;100.00
55289;BME280;41154;45.394;5.734;2023-02-26T04:16:30;95705.75;;;2.56;100.00
55289;BME280;41154;45.394;5.734;2023-02-26T04:18:58;95696.91;;;2.50;100.00
55289;BME280;41154;45.394;5.734;2023-02-26T04:21:23;95704.50;;;2.35;100.00
55289;BME280;41154;45.394;5.734;2023-02-26T04:23:49;95710.34;;;2.49;100.00
55289;BME280;41154;45.394;5.734;2023-02-26T04:26:15;95700.13;;;2.41;100.00
55289;BME280;41154;45.394;5.734;2023-02-26T04:28:42;95704.84;;;2.50;100.00
55289;BME280;41154;45.394;5.734;2023-02-26T04:31:08;95700.81;;;2.48;100.00
55289;BME280;41154;45.394;5.734;2023-02-26T04:33:35;95704.16;;;2.55;100.00
55289;BME280;41154;45.394;5.734;2023-02-26T04:36:01;95704.50;;;2.59;100.00
55289;BME280;41154;45.394;5.734;2023-02-26T04:38:27;95702.88;;;2.46;100.00
55289;BME280;41154;45.394;5.734;2023-02-26T04:40:53;95701.97;;;2.40;100.00
55289;BME280;41154;45.394;5.734;2023-02-26T04:43:19;95708.53;;;2.38;100.00
55289;BME280;41154;45.394;5.734;2023-02-26T04:46:05;95709.69;;;2.42;100.00
55289;BME280;41154;45.394;5.734;2023-02-26T04:48:31;95705.78;;;2.32;100.00
55289;BME280;41154;45.394;5.734;2023-02-26T04:50:57;95703.91;;;2.33;100.00
55289;BME280;41154;45.394;5.734;2023-02-26T04:53:24;95710.69;;;2.29;100.00
55289;BME280;41154;45.394;5.734;2023-02-26T04:55:50;95708.03;;;2.29;100.00
55289;BME280;41154;45.394;5.734;2023-02-26T04:58:16;95706.91;;;2.37;100.00
55289;BME280;41154;45.394;5.734;2023-02-26T05:00:42;95692.53;;;2.44;100.00
55289;BME280;41154;45.394;5.734;2023-02-26T05:03:12;95694.25;;;2.62;100.00
55289;BME280;41154;45.394;5.734;2023-02-26T05:05:38;95696.09;;;2.38;100.00
55289;BME280;41154;45.394;5.734;2023-02-26T05:08:05;95691.84;;;2.37;100.00
55289;BME280;41154;45.394;5.734;2023-02-26T05:10:32;95688.38;;;2.13;100.00
55289;BME280;41154;45.394;5.734;2023-02-26T05:12:57;95698.16;;;2.12;100.00
55289;BME280;41154;45.394;5.734;2023-02-26T05:15:23;95692.31;;;2.10;100.00
55289;BME280;41154;45.394;5.734;2023-02-26T05:17:49;95691.94;;;2.30;100.00
55289;BME280;41154;45.394;5.734;2023-02-26T05:20:15;95690.44;;;2.11;100.00
55289;BME280;41154;45.394;5.734;2023-02-26T05:22:44;95689.19;;;2.25;100.00
55289;BME280;41154;45.394;5.734;2023-02-26T05:25:11;95686.28;;;2.15;100.00
55289;BME280;41154;45.394;5.734;2023-02-26T05:27:38;95688.03;;;2.21;100.00
55289;BME280;41154;45.394;5.734;2023-02-26T05:30:06;95688.50;;;2.06;100.00
55289;BME280;41154;45.394;5.734;2023-02-26T05:32:34;95694.47;;;2.25;100.00
55289;BME280;41154;45.394;5.734;2023-02-26T05:35:00;95690.09;;;2.43;100.00
55289;BME280;41154;45.394;5.734;2023-02-26T05:37:26;95681.00;;;2.50;100.00
55289;BME280;41154;45.394;5.734;2023-02-26T05:39:52;95686.66;;;2.42;100.00
55289;BME280;41154;45.394;5.734;2023-02-26T05:42:18;95672.16;;;2.33;100.00
55289;BME280;41154;45.394;5.734;2023-02-26T05:44:45;95674.09;;;2.26;100.00
55289;BME280;41154;45.394;5.734;2023-02-26T05:47:13;95673.78;;;2.22;100.00
55289;BME280;41154;45.394;5.734;2023-02-26T05:49:39;95677.69;;;2.31;100.00
55289;BME280;41154;45.394;5.734;2023-02-26T05:52:10;95674.69;;;2.04;100.00
55289;BME280;41154;45.394;5.734;2023-02-26T05:54:41;95675.63;;;1.98;100.00
55289;BME280;41154;45.394;5.734;2023-02-26T05:57:07;95682.84;;;1.91;100.00
55289;BME280;41154;45.394;5.734;2023-02-26T05:59:33;95677.19;;;1.99;100.00
55289;BME280;41154;45.394;5.734;2023-02-26T06:02:02;95689.28;;;2.07;100.00
55289;BME280;41154;45.394;5.734;2023-02-26T06:04:27;95681.72;;;2.34;100.00
55289;BME280;41154;45.394;5.734;2023-02-26T06:06:55;95684.25;;;2.29;100.00
55289;BME280;41154;45.394;5.734;2023-02-26T06:09:21;95686.78;;;2.24;100.00
55289;BME280;41154;45.394;5.734;2023-02-26T06:11:46;95681.94;;;2.32;100.00
55289;BME280;41154;45.394;5.734;2023-02-26T06:14:14;95683.69;;;2.39;100.00
55289;BME280;41154;45.394;5.734;2023-02-26T06:16:40;95685.63;;;2.20;100.00
55289;BME280;41154;45.394;5.734;2023-02-26T06:19:06;95688.16;;;2.14;100.00
55289;BME280;41154;45.394;5.734;2023-02-26T06:21:31;95687.34;;;2.26;100.00
55289;BME280;41154;45.394;5.734;2023-02-26T06:23:58;95674.81;;;2.09;100.00
55289;BME280;41154;45.394;5.734;2023-02-26T06:26:24;95679.06;;;1.98;100.00
55289;BME280;41154;45.394;5.734;2023-02-26T06:28:50;95688.00;;;1.97;100.00
55289;BME280;41154;45.394;5.734;2023-02-26T06:31:15;95681.13;;;1.96;100.00
55289;BME280;41154;45.394;5.734;2023-02-26T06:33:41;95687.97;;;1.74;100.00
55289;BME280;41154;45.394;5.734;2023-02-26T06:36:07;95686.91;;;1.63;100.00
55289;BME280;41154;45.394;5.734;2023-02-26T06:38:33;95688.00;;;1.86;100.00
55289;BME280;41154;45.394;5.734;2023-02-26T06:40:59;95696.78;;;1.56;100.00
55289;BME280;41154;45.394;5.734;2023-02-26T06:43:24;95695.06;;;1.61;100.00
55289;BME280;41154;45.394;5.734;2023-02-26T06:45:50;95693.47;;;1.72;100.00
55289;BME280;41154;45.394;5.734;2023-02-26T06:48:17;95694.25;;;1.61;100.00
55289;BME280;41154;45.394;5.734;2023-02-26T06:50:43;95697.88;;;1.78;100.00
55289;BME280;41154;45.394;5.734;2023-02-26T06:53:09;95690.66;;;1.86;100.00
55289;BME280;41154;45.394;5.734;2023-02-26T06:55:35;95694.81;;;1.93;100.00
55289;BME280;41154;45.394;5.734;2023-02-26T06:58:02;95702.94;;;1.80;100.00
55289;BME280;41154;45.394;5.734;2023-02-26T07:00:31;95693.09;;;2.11;100.00
55289;BME280;41154;45.394;5.734;2023-02-26T07:02:57;95699.03;;;1.94;100.00
55289;BME280;41154;45.394;5.734;2023-02-26T07:05:23;95696.09;;;2.03;100.00
55289;BME280;41154;45.394;5.734;2023-02-26T07:07:49;95698.59;;;1.97;100.00
55289;BME280;41154;45.394;5.734;2023-02-26T07:10:15;95705.28;;;2.00;100.00
55289;BME280;41154;45.394;5.734;2023-02-26T07:12:41;95701.31;;;1.79;100.00
55289;BME280;41154;45.394;5.734;2023-02-26T07:15:08;95700.78;;;2.01;100.00
55289;BME280;41154;45.394;5.734;2023-02-26T07:17:34;95696.66;;;2.05;100.00
55289;BME280;41154;45.394;5.734;2023-02-26T07:19:59;95701.97;;;1.63;100.00
55289;BME280;41154;45.394;5.734;2023-02-26T07:22:31;95701.69;;;1.83;100.00
55289;BME280;41154;45.394;5.734;2023-02-26T07:24:57;95691.44;;;1.86;100.00
55289;BME280;41154;45.394;5.734;2023-02-26T07:27:25;95697.38;;;1.70;100.00
55289;BME280;41154;45.394;5.734;2023-02-26T07:29:50;95693.97;;;1.81;100.00
55289;BME280;41154;45.394;5.734;2023-02-26T07:32:17;95699.84;;;1.83;100.00
55289;BME280;41154;45.394;5.734;2023-02-26T07:34:43;95702.66;;;1.70;100.00
55289;BME280;41154;45.394;5.734;2023-02-26T07:37:08;95694.78;;;1.82;100.00
55289;BME280;41154;45.394;5.734;2023-02-26T07:39:34;95696.09;;;2.03;100.00
55289;BME280;41154;45.394;5.734;2023-02-26T07:42:00;95692.97;;;2.06;100.00
55289;BME280;41154;45.394;5.734;2023-02-26T07:44:27;95707.47;;;2.27;100.00
55289;BME280;41154;45.394;5.734;2023-02-26T07:46:53;95700.22;;;1.98;100.00
55289;BME280;41154;45.394;5.734;2023-02-26T07:49:19;95693.88;;;1.88;100.00
55289;BME280;41154;45.394;5.734;2023-02-26T07:51:46;95700.19;;;1.87;100.00
55289;BME280;41154;45.394;5.734;2023-02-26T07:54:12;95707.59;;;1.66;100.00
55289;BME280;41154;45.394;5.734;2023-02-26T07:56:39;95712.09;;;1.66;100.00
55289;BME280;41154;45.394;5.734;2023-02-26T07:59:06;95698.44;;;1.80;100.00
55289;BME280;41154;45.394;5.734;2023-02-26T08:01:34;95705.44;;;1.75;100.00
55289;BME280;41154;45.394;5.734;2023-02-26T08:04:01;95696.34;;;1.71;100.00
55289;BME280;41154;45.394;5.734;2023-02-26T08:06:27;95703.28;;;1.84;100.00
55289;BME280;41154;45.394;5.734;2023-02-26T08:08:53;95707.59;;;1.66;100.00
55289;BME280;41154;45.394;5.734;2023-02-26T08:11:19;95704.22;;;1.47;100.00
55289;BME280;41154;45.394;5.734;2023-02-26T08:13:45;95706.06;;;1.47;100.00
55289;BME280;41154;45.394;5.734;2023-02-26T08:16:11;95702.28;;;1.54;100.00
55289;BME280;41154;45.394;5.734;2023-02-26T08:18:37;95688.75;;;1.74;100.00
55289;BME280;41154;45.394;5.734;2023-02-26T08:21:04;95697.00;;;1.54;100.00
55289;BME280;41154;45.394;5.734;2023-02-26T08:23:30;95694.66;;;1.46;100.00
55289;BME280;41154;45.394;5.734;2023-02-26T08:26:01;95698.13;;;1.47;100.00
55289;BME280;41154;45.394;5.734;2023-02-26T08:28:27;95701.06;;;1.38;100.00
55289;BME280;41154;45.394;5.734;2023-02-26T08:30:53;95694.13;;;1.56;100.00
55289;BME280;41154;45.394;5.734;2023-02-26T08:33:19;95708.94;;;1.57;100.00
55289;BME280;41154;45.394;5.734;2023-02-26T08:35:48;95709.59;;;1.40;100.00
55289;BME280;41154;45.394;5.734;2023-02-26T08:38:14;95706.13;;;1.40;100.00
55289;BME280;41154;45.394;5.734;2023-02-26T08:40:40;95713.16;;;1.46;100.00
55289;BME280;41154;45.394;5.734;2023-02-26T08:43:06;95706.88;;;1.59;100.00
55289;BME280;41154;45.394;5.734;2023-02-26T08:45:32;95704.59;;;1.63;100.00
55289;BME280;41154;45.394;5.734;2023-02-26T08:47:57;95704.72;;;1.56;100.00
55289;BME280;41154;45.394;5.734;2023-02-26T08:50:24;95701.13;;;1.62;100.00
55289;BME280;41154;45.394;5.734;2023-02-26T08:52:50;95715.06;;;1.57;100.00
55289;BME280;41154;45.394;5.734;2023-02-26T08:55:16;95705.97;;;1.65;91.59
55289;BME280;41154;45.394;5.734;2023-02-26T08:57:41;95706.88;;;1.59;89.44
55289;BME280;41154;45.394;5.734;2023-02-26T09:00:08;95718.72;;;1.56;88.31
55289;BME280;41154;45.394;5.734;2023-02-26T09:02:37;95721.38;;;1.56;87.51
55289;BME280;41154;45.394;5.734;2023-02-26T09:05:05;95719.28;;;1.58;86.41
55289;BME280;41154;45.394;5.734;2023-02-26T09:07:31;95714.41;;;1.74;86.47
55289;BME280;41154;45.394;5.734;2023-02-26T09:09:57;95717.44;;;1.89;87.09
55289;BME280;41154;45.394;5.734;2023-02-26T09:12:24;95727.41;;;1.75;86.32
55289;BME280;41154;45.394;5.734;2023-02-26T09:14:52;95729.41;;;1.92;83.94
55289;BME280;41154;45.394;5.734;2023-02-26T09:17:18;95722.09;;;2.29;83.93
55289;BME280;41154;45.394;5.734;2023-02-26T09:19:44;95722.63;;;1.96;82.38
55289;BME280;41154;45.394;5.734;2023-02-26T09:22:10;95724.16;;;2.15;84.38
55289;BME280;41154;45.394;5.734;2023-02-26T09:24:35;95739.09;;;2.10;83.55
55289;BME280;41154;45.394;5.734;2023-02-26T09:27:01;95730.09;;;1.99;81.95
55289;BME280;41154;45.394;5.734;2023-02-26T09:29:29;95740.22;;;1.90;83.21
55289;BME280;41154;45.394;5.734;2023-02-26T09:31:56;95742.25;;;1.88;81.81
55289;BME280;41154;45.394;5.734;2023-02-26T09:34:28;95740.66;;;1.99;81.02
55289;BME280;41154;45.394;5.734;2023-02-26T09:36:54;95740.44;;;1.89;82.29
55289;BME280;41154;45.394;5.734;2023-02-26T09:39:21;95748.75;;;2.16;80.62
55289;BME280;41154;45.394;5.734;2023-02-26T09:41:51;95748.38;;;1.89;81.48
55289;BME280;41154;45.394;5.734;2023-02-26T09:44:26;95744.25;;;2.16;81.21
55289;BME280;41154;45.394;5.734;2023-02-26T09:54:48;95762.22;;;2.14;77.17
55289;BME280;41154;45.394;5.734;2023-02-26T09:57:25;95755.69;;;2.29;78.34
55289;BME280;41154;45.394;5.734;2023-02-26T09:59:52;95751.84;;;2.13;78.22
55289;BME280;41154;45.394;5.734;2023-02-26T10:05:42;95758.78;;;2.26;77.77
55289;BME280;41154;45.394;5.734;2023-02-26T10:08:21;95747.06;;;2.45;77.74
55289;BME280;41154;45.394;5.734;2023-02-26T10:10:53;95759.50;;;2.45;75.46
55289;BME280;41154;45.394;5.734;2023-02-26T10:13:36;95764.56;;;2.46;76.77
55289;BME280;41154;45.394;5.734;2023-02-26T10:16:08;95771.31;;;2.19;77.99
55289;BME280;41154;45.394;5.734;2023-02-26T10:18:41;95770.97;;;2.27;75.56
55289;BME280;41154;45.394;5.734;2023-02-26T10:23:59;95764.44;;;2.65;77.18
55289;BME280;41154;45.394;5.734;2023-02-26T10:26:29;95763.06;;;2.86;76.26
55289;BME280;41154;45.394;5.734;2023-02-26T10:34:53;95778.63;;;2.59;74.82
55289;BME280;41154;45.394;5.734;2023-02-26T10:40:10;95764.34;;;2.48;75.82
55289;BME280;41154;45.394;5.734;2023-02-26T10:42:49;95762.38;;;2.43;76.09
55289;BME280;41154;45.394;5.734;2023-02-26T10:45:48;95761.56;;;2.78;75.29
55289;BME280;41154;45.394;5.734;2023-02-26T10:51:33;95762.94;;;2.93;76.94
55289;BME280;41154;45.394;5.734;2023-02-26T10:54:30;95769.06;;;2.93;75.27
55289;BME280;41154;45.394;5.734;2023-02-26T10:56:59;95763.75;;;2.69;75.02
55289;BME280;41154;45.394;5.734;2023-02-26T10:59:26;95773.75;;;2.20;76.17
55289;BME280;41154;45.394;5.734;2023-02-26T11:01:52;95772.78;;;2.14;77.42
55289;BME280;41154;45.394;5.734;2023-02-26T11:04:21;95776.41;;;2.44;75.26
55289;BME280;41154;45.394;5.734;2023-02-26T11:07:01;95769.28;;;2.56;76.44
55289;BME280;41154;45.394;5.734;2023-02-26T11:12:13;95771.47;;;2.71;75.82
55289;BME280;41154;45.394;5.734;2023-02-26T11:14:44;95775.84;;;2.77;75.51
55289;BME280;41154;45.394;5.734;2023-02-26T11:17:22;95772.19;;;2.90;75.16
55289;BME280;41154;45.394;5.734;2023-02-26T11:20:00;95755.72;;;2.64;74.15
55289;BME280;41154;45.394;5.734;2023-02-26T11:22:30;95771.47;;;2.71;73.45
55289;BME280;41154;45.394;5.734;2023-02-26T11:24:56;95758.56;;;2.86;75.19
55289;BME280;41154;45.394;5.734;2023-02-26T11:27:31;95760.78;;;2.78;74.70
55289;BME280;41154;45.394;5.734;2023-02-26T11:30:06;95769.75;;;2.65;74.90
55289;BME280;41154;45.394;5.734;2023-02-26T11:32:36;95767.44;;;2.45;73.43
55289;BME280;41154;45.394;5.734;2023-02-26T11:35:06;95757.31;;;2.54;74.84
55289;BME280;41154;45.394;5.734;2023-02-26T11:37:38;95755.81;;;2.69;74.07
55289;BME280;41154;45.394;5.734;2023-02-26T11:42:48;95755.94;;;2.98;74.10
55289;BME280;41154;45.394;5.734;2023-02-26T11:45:16;95755.94;;;2.75;74.11
55289;BME280;41154;45.394;5.734;2023-02-26T11:47:43;95758.13;;;2.66;72.77
55289;BME280;41154;45.394;5.734;2023-02-26T11:50:16;95758.22;;;2.71;73.86
55289;BME280;41154;45.394;5.734;2023-02-26T11:52:45;95755.34;;;2.84;74.43
55289;BME280;41154;45.394;5.734;2023-02-26T11:55:21;95761.44;;;2.85;73.74
55289;BME280;41154;45.394;5.734;2023-02-26T11:57:52;95748.44;;;2.60;73.29
55289;BME280;41154;45.394;5.734;2023-02-26T12:00:35;95755.25;;;2.56;72.51
55289;BME280;41154;45.394;5.734;2023-02-26T12:03:06;95751.78;;;2.55;72.77
55289;BME280;41154;45.394;5.734;2023-02-26T12:05:35;95733.72;;;2.40;72.53
55289;BME280;41154;45.394;5.734;2023-02-26T12:08:02;95741.09;;;2.85;72.85
55289;BME280;41154;45.394;5.734;2023-02-26T12:10:41;95729.56;;;2.44;72.63
55289;BME280;41154;45.394;5.734;2023-02-26T12:13:34;95738.91;;;2.59;73.94
55289;BME280;41154;45.394;5.734;2023-02-26T12:16:23;95740.88;;;2.51;71.41
55289;BME280;41154;45.394;5.734;2023-02-26T12:21:51;95726.91;;;2.80;73.89
55289;BME280;41154;45.394;5.734;2023-02-26T12:25:15;95712.09;;;2.43;72.27
55289;BME280;41154;45.394;5.734;2023-02-26T12:32:50;95714.81;;;2.96;71.11
55289;BME280;41154;45.394;5.734;2023-02-26T12:38:04;95716.66;;;2.95;71.41
55289;BME280;41154;45.394;5.734;2023-02-26T12:43:26;95713.44;;;2.93;70.52
55289;BME280;41154;45.394;5.734;2023-02-26T12:46:57;95712.56;;;2.64;70.04
55289;BME280;41154;45.394;5.734;2023-02-26T12:59:59;95707.03;;;2.30;69.78
55289;BME280;41154;45.394;5.734;2023-02-26T13:08:11;95715.06;;;2.23;69.84
55289;BME280;41154;45.394;5.734;2023-02-26T13:16:52;95695.31;;;2.49;70.38
55289;BME280;41154;45.394;5.734;2023-02-26T13:19:41;95694.84;;;2.53;70.21
55289;BME280;41154;45.394;5.734;2023-02-26T13:25:52;95689.66;;;2.58;70.37
55289;BME280;41154;45.394;5.734;2023-02-26T13:28:38;95681.00;;;2.50;69.37
55289;BME280;41154;45.394;5.734;2023-02-26T13:31:11;95700.53;;;2.85;68.50
55289;BME280;41154;45.394;5.734;2023-02-26T13:33:40;95685.50;;;2.50;68.42
55289;BME280;41154;45.394;5.734;2023-02-26T13:36:06;95689.56;;;2.53;68.40
55289;BME280;41154;45.394;5.734;2023-02-26T13:41:15;95681.28;;;3.01;69.33
55289;BME280;41154;45.394;5.734;2023-02-26T13:46:12;95677.53;;;2.85;68.57
55289;BME280;41154;45.394;5.734;2023-02-26T13:48:53;95667.16;;;2.84;67.56
55289;BME280;41154;45.394;5.734;2023-02-26T13:51:34;95680.31;;;2.67;67.60
55289;BME280;41154;45.394;5.734;2023-02-26T14:01:52;95681.16;;;2.56;66.45
55289;BME280;41154;45.394;5.734;2023-02-26T14:04:24;95683.44;;;2.64;67.52
55289;BME280;41154;45.394;5.734;2023-02-26T14:06:57;95683.44;;;2.64;67.02
55289;BME280;41154;45.394;5.734;2023-02-26T14:19:32;95681.34;;;2.78;67.36
55289;BME280;41154;45.394;5.734;2023-02-26T14:25:00;95666.00;;;2.92;66.98
55289;BME280;41154;45.394;5.734;2023-02-26T14:27:36;95675.50;;;2.64;66.27
55289;BME280;41154;45.394;5.734;2023-02-26T14:30:16;95674.78;;;2.57;65.79
55289;BME280;41154;45.394;5.734;2023-02-26T14:32:52;95661.22;;;2.53;67.96
55289;BME280;41154;45.394;5.734;2023-02-26T14:35:27;95670.88;;;2.59;65.52
55289;BME280;41154;45.394;5.734;2023-02-26T14:43:40;95658.47;;;2.36;65.94
55289;BME280;41154;45.394;5.734;2023-02-26T14:46:08;95665.25;;;2.32;66.21
55289;BME280;41154;45.394;5.734;2023-02-26T14:48:35;95665.72;;;2.29;66.62
55289;BME280;41154;45.394;5.734;2023-02-26T14:53:49;95665.84;;;2.34;66.25
55289;BME280;41154;45.394;5.734;2023-02-26T15:01:48;95660.06;;;2.13;66.42
55289;BME280;41154;45.394;5.734;2023-02-26T15:15:51;95658.13;;;1.97;67.46
55289;BME280;41154;45.394;5.734;2023-02-26T15:26:06;95662.59;;;2.08;67.50
55289;BME280;41154;45.394;5.734;2023-02-26T15:28:44;95666.97;;;1.91;67.42
55289;BME280;41154;45.394;5.734;2023-02-26T15:31:14;95657.63;;;1.88;67.69
55289;BME280;41154;45.394;5.734;2023-02-26T15:33:40;95672.91;;;1.74;68.35
55289;BME280;41154;45.394;5.734;2023-02-26T15:36:11;95662.03;;;1.83;68.03
55289;BME280;41154;45.394;5.734;2023-02-26T15:39:01;95671.31;;;1.85;67.93
55289;BME280;41154;45.394;5.734;2023-02-26T15:41:31;95678.69;;;1.83;67.38
55289;BME280;41154;45.394;5.734;2023-02-26T15:44:02;95686.28;;;2.15;67.60
55289;BME280;41154;45.394;5.734;2023-02-26T15:46:37;95685.59;;;1.96;67.88
55289;BME280;41154;45.394;5.734;2023-02-26T15:49:43;95692.63;;;2.02;68.79
55289;BME280;41154;45.394;5.734;2023-02-26T15:52:16;95682.84;;;1.91;69.66
55289;BME280;41154;45.394;5.734;2023-02-26T15:54:53;95693.22;;;2.04;70.66
55289;BME280;41154;45.394;5.734;2023-02-26T15:57:24;95699.06;;;2.06;69.25
55289;BME280;41154;45.394;5.734;2023-02-26T15:59:53;95699.31;;;1.63;70.89
55289;BME280;41154;45.394;5.734;2023-02-26T16:02:33;95699.00;;;1.71;70.59
55289;BME280;41154;45.394;5.734;2023-02-26T16:05:01;95691.66;;;1.85;71.74
55289;BME280;41154;45.394;5.734;2023-02-26T16:07:27;95694.66;;;1.76;72.16
55289;BME280;41154;45.394;5.734;2023-02-26T16:09:55;95706.13;;;1.82;72.29
55289;BME280;41154;45.394;5.734;2023-02-26T16:12:24;95708.16;;;2.10;70.88
55289;BME280;41154;45.394;5.734;2023-02-26T16:14:58;95700.31;;;1.92;70.57
55289;BME280;41154;45.394;5.734;2023-02-26T16:17:27;95710.53;;;1.88;71.82
55289;BME280;41154;45.394;5.734;2023-02-26T16:19:56;95716.56;;;1.65;72.06
55289;BME280;41154;45.394;5.734;2023-02-26T16:22:25;95713.94;;;1.77;72.08